Time;durP1;ratioP1;P1;durP2;ratioP2;P2;SDS_P1;SDS_P2;PMS_P1;PMS_P2;Temp;Humidity;BMP_temperature;BMP_pressure;BME280_temperature;BME280_humidity;BME280_pressure;Samples;Min_cycle;Max_cycle;Signal;HPM_P1;HPM_P2
2022/07/19 00:00:48;;;;;;;10.20;5.10;;;20.50;32.20;;;;;;5033303;28;20445;-69
2022/07/19 00:03:14;;;;;;;7.43;4.70;;;20.50;32.40;;;;;;5040764;28;20885;-71
2022/07/19 00:05:40;;;;;;;9.30;5.20;;;20.50;32.80;;;;;;5046489;28;20752;-68
2022/07/19 00:08:06;;;;;;;9.50;4.95;;;20.50;32.60;;;;;;5032775;28;20379;-69
2022/07/19 00:10:31;;;;;;;9.43;5.37;;;20.40;33.00;;;;;;5037054;28;20900;-69
2022/07/19 00:12:57;;;;;;;10.73;5.70;;;20.30;33.60;;;;;;5048380;28;20389;-69
2022/07/19 00:15:23;;;;;;;7.82;5.60;;;20.20;34.30;;;;;;5037267;28;20391;-69
2022/07/19 00:17:49;;;;;;;12.20;6.30;;;20.20;35.00;;;;;;5038667;28;20395;-71
2022/07/19 00:20:17;;;;;;;10.02;5.95;;;20.20;35.20;;;;;;5043845;28;20402;-69
2022/07/19 00:22:43;;;;;;;7.18;4.70;;;20.20;34.90;;;;;;5041823;28;20407;-69
2022/07/19 00:25:09;;;;;;;11.98;5.57;;;20.20;34.30;;;;;;5048812;28;21019;-70
2022/07/19 00:27:36;;;;;;;10.77;5.30;;;20.20;34.00;;;;;;5039421;28;20399;-70
2022/07/19 00:30:04;;;;;;;10.20;5.00;;;20.20;33.20;;;;;;5040021;28;20417;-70
2022/07/19 00:32:30;;;;;;;8.90;5.38;;;20.30;32.70;;;;;;5037059;28;20832;-72
2022/07/19 00:34:55;;;;;;;13.05;5.00;;;20.40;30.90;;;;;;5032469;28;20484;-69
2022/07/19 00:37:21;;;;;;;10.53;5.60;;;20.60;30.50;;;;;;5050319;28;20394;-70
2022/07/19 00:39:47;;;;;;;13.38;6.60;;;20.40;30.60;;;;;;5053437;28;20389;-71
2022/07/19 00:42:14;;;;;;;10.82;5.93;;;20.30;31.30;;;;;;5034307;28;20407;-69
2022/07/19 00:44:40;;;;;;;9.45;5.22;;;20.20;31.70;;;;;;5033867;28;20806;-69
2022/07/19 00:47:06;;;;;;;8.53;5.30;;;20.20;31.70;;;;;;5033875;28;20497;-72
2022/07/19 00:49:32;;;;;;;10.70;4.80;;;20.10;31.30;;;;;;5035116;28;20410;-71
2022/07/19 00:51:59;;;;;;;7.73;4.60;;;20.10;31.20;;;;;;5044046;28;20394;-71
2022/07/19 00:54:26;;;;;;;8.63;4.85;;;20.00;31.30;;;;;;5051947;28;20461;-70
2022/07/19 00:56:54;;;;;;;10.60;5.20;;;20.00;30.70;;;;;;5047371;28;20400;-70
2022/07/19 00:59:20;;;;;;;9.60;5.13;;;20.00;30.50;;;;;;5034737;28;20737;-70
2022/07/19 01:01:46;;;;;;;14.98;5.90;;;20.10;30.30;;;;;;5036084;28;20872;-70
2022/07/19 01:04:12;;;;;;;9.20;4.50;;;20.10;29.10;;;;;;5033763;28;20430;-70
2022/07/19 01:06:37;;;;;;;8.63;5.10;;;20.10;28.90;;;;;;5044145;28;20397;-71
2022/07/19 01:09:04;;;;;;;9.73;5.47;;;20.20;28.80;;;;;;5058104;28;20410;-70
2022/07/19 01:11:30;;;;;;;8.43;5.55;;;20.20;29.50;;;;;;5048266;28;20393;-71
2022/07/19 01:13:56;;;;;;;8.52;5.15;;;20.20;29.80;;;;;;5037999;28;20399;-70
2022/07/19 01:16:22;;;;;;;12.23;5.40;;;20.20;29.70;;;;;;5045135;28;20396;-70
2022/07/19 01:18:50;;;;;;;10.88;6.00;;;20.30;29.60;;;;;;5033482;28;20403;-71
2022/07/19 01:21:21;;;;;;;12.70;5.32;;;20.10;30.10;;;;;;5042762;28;20443;-69
2022/07/19 01:23:47;;;;;;;11.00;5.20;;;20.10;30.80;;;;;;5047753;28;20429;-70
2022/07/19 01:26:13;;;;;;;9.95;5.03;;;20.20;30.40;;;;;;5051190;28;20470;-69
2022/07/19 01:28:38;;;;;;;8.27;5.18;;;20.20;29.70;;;;;;5048355;28;20504;-71
2022/07/19 01:31:04;;;;;;;7.10;4.82;;;20.10;29.90;;;;;;5049001;28;20485;-71
2022/07/19 01:33:30;;;;;;;8.43;4.75;;;19.90;30.60;;;;;;5054246;28;20384;-70
2022/07/19 01:35:56;;;;;;;8.35;4.88;;;19.90;30.50;;;;;;5047348;28;20395;-71
2022/07/19 01:38:21;;;;;;;9.27;5.13;;;19.80;30.90;;;;;;5034196;28;20884;-72
2022/07/19 01:40:47;;;;;;;7.85;5.20;;;19.80;31.20;;;;;;5051187;28;20393;-73
2022/07/19 01:43:12;;;;;;;9.53;5.23;;;19.80;31.40;;;;;;5044983;28;20429;-71
2022/07/19 01:45:38;;;;;;;8.67;4.80;;;19.70;31.50;;;;;;5050634;22;20848;-77
2022/07/19 01:48:04;;;;;;;7.72;4.70;;;19.70;31.60;;;;;;5053134;28;20802;-76
2022/07/19 01:50:30;;;;;;;11.43;4.90;;;19.70;31.90;;;;;;5053784;28;21452;-77
2022/07/19 01:52:55;;;;;;;10.63;5.20;;;19.60;31.90;;;;;;5052569;28;20412;-77
2022/07/19 01:55:21;;;;;;;8.00;5.30;;;19.70;32.50;;;;;;5050689;28;20557;-76
2022/07/19 01:57:48;;;;;;;9.20;5.87;;;19.60;32.90;;;;;;5040354;28;20386;-77
2022/07/19 02:00:14;;;;;;;5.93;4.78;;;19.60;32.80;;;;;;5031102;28;20788;-76
2022/07/19 02:02:39;;;;;;;6.38;4.75;;;19.50;32.70;;;;;;5029384;28;20387;-76
2022/07/19 02:05:06;;;;;;;7.70;4.75;;;19.50;32.60;;;;;;5031137;28;20453;-76
2022/07/19 02:07:32;;;;;;;8.60;4.68;;;19.40;33.00;;;;;;5032396;28;20530;-76
2022/07/19 02:09:58;;;;;;;9.40;5.03;;;19.40;33.30;;;;;;5035494;28;20908;-77
2022/07/19 02:12:23;;;;;;;7.20;4.57;;;19.40;33.30;;;;;;5040326;28;20787;-77
2022/07/19 02:14:49;;;;;;;6.22;4.50;;;19.40;33.90;;;;;;5030887;28;20383;-78
2022/07/19 02:17:14;;;;;;;7.22;4.50;;;19.30;34.60;;;;;;5046722;28;20830;-77
2022/07/19 02:19:40;;;;;;;7.17;5.10;;;19.30;34.60;;;;;;5034072;28;20903;-77
2022/07/19 02:22:05;;;;;;;9.85;5.40;;;19.30;34.40;;;;;;5042840;28;20883;-77
2022/07/19 02:24:31;;;;;;;8.63;5.00;;;19.20;33.80;;;;;;5033273;28;20486;-76
2022/07/19 02:26:56;;;;;;;10.10;4.80;;;19.30;33.90;;;;;;5049649;28;20444;-79
2022/07/19 02:29:22;;;;;;;8.15;5.00;;;19.30;34.30;;;;;;5030713;28;20456;-76
2022/07/19 02:31:47;;;;;;;9.83;4.60;;;19.20;34.90;;;;;;5030420;28;20474;-77
2022/07/19 02:34:13;;;;;;;11.45;4.72;;;19.10;35.20;;;;;;5033083;28;20387;-78
2022/07/19 02:36:39;;;;;;;7.00;4.90;;;19.10;35.60;;;;;;5051000;28;20785;-76
2022/07/19 02:39:04;;;;;;;8.50;4.90;;;19.00;35.90;;;;;;5036139;28;20399;-78
2022/07/19 02:41:31;;;;;;;12.90;5.05;;;19.00;36.50;;;;;;5050652;28;20400;-77
2022/07/19 02:43:57;;;;;;;9.15;5.20;;;18.90;36.60;;;;;;5048661;28;20472;-78
2022/07/19 02:46:23;;;;;;;12.70;5.40;;;18.90;36.50;;;;;;5049473;28;20436;-77
2022/07/19 02:48:48;;;;;;;8.10;5.30;;;18.90;36.70;;;;;;5029445;28;20424;-77
2022/07/19 02:51:14;;;;;;;12.60;5.63;;;18.90;36.60;;;;;;5037949;28;20894;-78
2022/07/19 02:53:40;;;;;;;6.82;4.57;;;18.90;36.30;;;;;;5041885;28;20871;-76
2022/07/19 02:56:05;;;;;;;10.05;5.10;;;19.00;35.40;;;;;;5029630;28;20387;-79
2022/07/19 02:58:31;;;;;;;7.50;4.88;;;19.00;34.90;;;;;;5044780;28;20842;-76
2022/07/19 03:00:57;;;;;;;8.07;5.07;;;18.90;35.80;;;;;;5045632;28;20397;-77
2022/07/19 03:06:07;;;;;;;8.82;5.13;;;19.00;36.00;;;;;;5045402;28;20416;-76
2022/07/19 03:08:33;;;;;;;8.30;4.75;;;18.90;36.00;;;;;;5038487;28;20411;-77
2022/07/19 03:10:58;;;;;;;6.20;4.57;;;18.90;36.50;;;;;;5041037;28;20389;-76
2022/07/19 03:13:24;;;;;;;7.30;4.77;;;18.90;36.70;;;;;;5049049;28;20872;-79
2022/07/19 03:15:49;;;;;;;9.57;4.97;;;18.80;36.20;;;;;;5048648;28;20389;-76
2022/07/19 03:18:15;;;;;;;7.10;4.50;;;18.80;35.90;;;;;;5047735;28;20430;-77
2022/07/19 03:20:40;;;;;;;6.77;4.50;;;18.90;35.80;;;;;;5038699;28;20503;-77
2022/07/19 03:23:06;;;;;;;9.82;4.90;;;18.80;35.90;;;;;;5053487;28;20439;-80
2022/07/19 03:25:31;;;;;;;9.97;5.17;;;18.80;35.50;;;;;;5040062;28;20398;-77
2022/07/19 03:27:57;;;;;;;7.97;4.35;;;18.80;35.50;;;;;;5050585;28;20389;-78
2022/07/19 03:30:23;;;;;;;8.47;4.33;;;18.70;35.20;;;;;;5044638;28;20862;-76
2022/07/19 03:32:48;;;;;;;8.30;5.10;;;18.90;34.00;;;;;;5040623;28;20433;-78
2022/07/19 03:35:14;;;;;;;6.70;4.30;;;18.90;34.00;;;;;;5039021;28;20440;-76
2022/07/19 03:37:40;;;;;;;6.07;4.60;;;18.90;33.90;;;;;;5034279;28;20395;-75
2022/07/19 03:40:06;;;;;;;10.00;5.10;;;18.90;34.40;;;;;;5034170;28;20395;-77
2022/07/19 03:42:32;;;;;;;7.30;4.70;;;19.00;34.00;;;;;;5036613;28;20398;-77
2022/07/19 03:44:57;;;;;;;10.02;4.90;;;19.10;33.30;;;;;;5042354;28;20468;-76
2022/07/19 03:47:23;;;;;;;6.13;4.50;;;19.00;33.50;;;;;;5050206;28;20439;-77
2022/07/19 03:49:48;;;;;;;7.85;4.40;;;18.90;34.50;;;;;;5039327;28;20414;-77
2022/07/19 03:52:14;;;;;;;9.70;4.67;;;18.90;35.00;;;;;;5039178;28;20422;-77
2022/07/19 03:54:40;;;;;;;6.57;5.10;;;19.20;34.10;;;;;;5043460;28;20421;-76
2022/07/19 03:57:05;;;;;;;7.20;4.80;;;19.10;34.00;;;;;;5055651;28;20844;-76
2022/07/19 03:59:31;;;;;;;8.50;5.30;;;18.90;34.70;;;;;;5048630;28;20410;-77
2022/07/19 04:01:57;;;;;;;8.30;4.70;;;18.90;35.40;;;;;;5046811;28;20458;-76
2022/07/19 04:04:22;;;;;;;7.90;4.70;;;18.90;35.40;;;;;;5044170;28;20392;-76
2022/07/19 04:06:48;;;;;;;8.50;4.90;;;19.00;35.30;;;;;;5033443;28;20402;-76
2022/07/19 04:09:13;;;;;;;6.95;4.53;;;19.00;34.70;;;;;;5035681;28;20758;-77
2022/07/19 04:11:39;;;;;;;6.07;4.83;;;19.10;34.70;;;;;;5038670;28;20391;-76
2022/07/19 04:14:05;;;;;;;8.20;4.10;;;19.10;34.10;;;;;;5033084;28;20393;-76
2022/07/19 04:16:30;;;;;;;9.60;4.80;;;19.30;33.00;;;;;;5044270;28;20464;-76
2022/07/19 04:18:56;;;;;;;8.23;4.47;;;19.30;32.70;;;;;;5050158;28;20761;-75
2022/07/19 04:21:21;;;;;;;9.70;4.60;;;19.20;32.60;;;;;;5033587;28;20395;-77
2022/07/19 04:23:47;;;;;;;12.93;4.88;;;19.20;32.80;;;;;;5036103;28;20475;-76
2022/07/19 04:26:12;;;;;;;10.27;4.53;;;19.20;32.50;;;;;;5046056;28;20427;-77
2022/07/19 04:28:38;;;;;;;8.57;4.60;;;19.20;32.40;;;;;;5048508;28;20461;-77
2022/07/19 04:31:04;;;;;;;9.02;4.75;;;19.30;31.80;;;;;;5051683;28;20392;-75
2022/07/19 04:33:29;;;;;;;6.20;4.23;;;19.30;31.20;;;;;;5045964;28;20796;-75
2022/07/19 04:35:55;;;;;;;8.77;4.40;;;19.40;30.50;;;;;;5044433;28;20484;-77
2022/07/19 04:38:21;;;;;;;11.15;4.70;;;19.50;29.60;;;;;;5033127;28;20848;-76
2022/07/19 04:40:47;;;;;;;8.38;4.30;;;19.60;28.90;;;;;;5037487;28;20754;-76
2022/07/19 04:43:12;;;;;;;10.90;4.68;;;19.70;28.10;;;;;;5051971;28;20386;-77
2022/07/19 04:45:42;;;;;;;5.60;3.60;;;19.80;27.40;;;;;;5051831;28;20488;-77
2022/07/19 04:48:08;;;;;;;10.85;4.40;;;20.00;26.30;;;;;;5051825;28;20382;-76
2022/07/19 04:50:33;;;;;;;8.25;3.95;;;20.20;25.00;;;;;;5037740;28;20407;-76
2022/07/19 04:52:59;;;;;;;7.10;4.10;;;20.30;24.90;;;;;;5032553;28;20990;-77
2022/07/19 04:55:24;;;;;;;10.98;4.50;;;20.30;24.20;;;;;;5037500;28;20476;-77
2022/07/19 04:57:50;;;;;;;8.65;3.72;;;20.50;23.70;;;;;;5043304;28;20397;-76
2022/07/19 05:00:16;;;;;;;9.17;3.80;;;20.60;23.30;;;;;;5032448;28;20411;-77
2022/07/19 05:02:41;;;;;;;6.32;4.63;;;20.60;22.70;;;;;;5032249;28;20402;-76
2022/07/19 05:05:07;;;;;;;11.70;4.03;;;20.70;22.40;;;;;;5039738;28;20399;-75
2022/07/19 05:07:33;;;;;;;6.70;4.20;;;20.80;21.70;;;;;;5044273;28;20813;-76
2022/07/19 05:09:59;;;;;;;7.87;3.80;;;20.90;21.00;;;;;;5031918;28;20764;-77
2022/07/19 05:12:24;;;;;;;10.05;3.90;;;21.00;20.40;;;;;;5046668;28;20839;-76
2022/07/19 05:14:50;;;;;;;6.53;3.90;;;21.10;20.40;;;;;;5032406;28;20472;-76
2022/07/19 05:17:15;;;;;;;10.60;3.77;;;21.20;19.90;;;;;;5039079;28;20412;-76
2022/07/19 05:19:41;;;;;;;8.38;3.97;;;21.30;19.60;;;;;;5030712;28;20399;-77
2022/07/19 05:22:07;;;;;;;9.98;3.60;;;21.40;19.10;;;;;;5031626;28;20804;-77
2022/07/19 05:24:33;;;;;;;11.18;4.00;;;21.60;18.90;;;;;;5031919;28;20395;-76
2022/07/19 05:26:58;;;;;;;6.97;3.50;;;21.80;18.10;;;;;;5043802;28;20885;-76
2022/07/19 05:29:24;;;;;;;11.77;3.80;;;21.80;18.20;;;;;;5038627;28;20416;-76
2022/07/19 05:31:50;;;;;;;10.68;3.90;;;21.90;18.10;;;;;;5038657;28;20391;-77
2022/07/19 05:34:15;;;;;;;7.77;3.80;;;21.90;18.30;;;;;;5029635;28;20394;-77
2022/07/19 05:36:41;;;;;;;6.82;4.05;;;22.00;18.40;;;;;;5043749;28;20389;-76
2022/07/19 05:39:07;;;;;;;10.75;3.97;;;22.10;18.40;;;;;;5050979;28;20394;-76
2022/07/19 05:41:33;;;;;;;12.87;4.30;;;22.10;18.30;;;;;;5039551;28;20402;-77
2022/07/19 05:43:59;;;;;;;5.90;4.20;;;22.30;18.30;;;;;;5042124;28;20443;-77
2022/07/19 05:46:24;;;;;;;7.83;4.20;;;22.40;18.40;;;;;;5050155;28;20409;-77
2022/07/19 05:48:50;;;;;;;11.90;4.75;;;22.40;18.00;;;;;;5051271;28;20401;-76
2022/07/19 05:51:16;;;;;;;11.03;4.53;;;22.50;17.70;;;;;;5037453;28;20402;-78
2022/07/19 05:53:42;;;;;;;7.13;4.38;;;22.60;17.10;;;;;;5031158;28;20387;-76
2022/07/19 05:56:08;;;;;;;11.63;4.97;;;22.70;16.90;;;;;;5036357;28;20485;-76
2022/07/19 05:58:34;;;;;;;7.25;4.20;;;22.80;16.50;;;;;;5046083;28;20400;-77
2022/07/19 06:01:17;;;;;;;7.97;4.00;;;22.90;16.40;;;;;;5030329;28;20466;-76
2022/07/19 06:03:44;;;;;;;10.40;4.13;;;23.00;16.10;;;;;;5031899;28;20383;-76
2022/07/19 06:06:10;;;;;;;6.82;3.60;;;23.10;15.90;;;;;;5042426;28;20407;-76
2022/07/19 06:08:36;;;;;;;8.15;4.25;;;23.20;15.70;;;;;;5050723;28;20418;-76
2022/07/19 06:11:01;;;;;;;11.13;4.25;;;23.30;15.70;;;;;;5043427;28;20430;-76
2022/07/19 06:13:27;;;;;;;8.70;4.30;;;23.40;15.70;;;;;;5031163;28;20383;-76
2022/07/19 06:15:52;;;;;;;10.80;4.25;;;23.60;15.40;;;;;;5036668;28;20793;-76
2022/07/19 06:18:18;;;;;;;16.50;3.90;;;23.70;15.00;;;;;;5046047;28;20422;-76
2022/07/19 06:20:44;;;;;;;12.45;4.18;;;23.70;14.90;;;;;;5041958;28;20393;-76
2022/07/19 06:23:10;;;;;;;6.60;4.05;;;23.90;14.80;;;;;;5048911;28;20435;-76
2022/07/19 06:25:35;;;;;;;8.57;3.80;;;23.90;14.30;;;;;;5048763;28;20393;-76
2022/07/19 06:28:01;;;;;;;10.90;3.67;;;24.10;13.90;;;;;;5037757;28;20845;-76
2022/07/19 06:30:27;;;;;;;10.02;4.20;;;24.10;13.70;;;;;;5035342;28;20411;-77
2022/07/19 06:32:52;;;;;;;11.37;3.77;;;24.30;13.50;;;;;;5030185;28;20391;-77
2022/07/19 06:35:18;;;;;;;8.17;3.90;;;24.40;13.30;;;;;;5031437;28;20380;-76
2022/07/19 06:37:43;;;;;;;6.10;3.40;;;24.60;12.90;;;;;;5030827;28;20427;-76
2022/07/19 06:40:09;;;;;;;9.17;4.00;;;24.80;12.80;;;;;;5030273;28;20383;-77
2022/07/19 06:42:35;;;;;;;7.20;3.80;;;24.90;12.50;;;;;;5050643;28;20820;-78
2022/07/19 06:45:01;;;;;;;9.27;3.73;;;25.00;12.30;;;;;;5050602;28;20394;-77
2022/07/19 06:47:28;;;;;;;10.32;4.13;;;25.20;12.20;;;;;;5032588;28;20414;-76
2022/07/19 06:49:53;;;;;;;8.18;3.80;;;25.20;11.90;;;;;;5048368;28;20414;-76
2022/07/19 06:52:19;;;;;;;7.17;3.93;;;25.30;12.00;;;;;;5041063;28;20891;-79
2022/07/19 06:54:45;;;;;;;8.30;3.80;;;25.30;12.10;;;;;;5036481;28;20382;-77
2022/07/19 06:57:10;;;;;;;12.38;3.88;;;25.40;11.70;;;;;;5034154;28;20760;-77
2022/07/19 06:59:36;;;;;;;15.73;3.97;;;25.50;11.80;;;;;;5056651;28;20811;-78
2022/07/19 07:02:03;;;;;;;9.40;4.00;;;25.60;11.70;;;;;;5050742;28;20453;-78
2022/07/19 07:04:28;;;;;;;6.00;3.80;;;25.70;11.20;;;;;;5037553;28;20896;-79
2022/07/19 07:06:54;;;;;;;9.83;3.77;;;25.90;10.00;;;;;;5054459;28;20405;-76
2022/07/19 07:09:20;;;;;;;11.32;4.82;;;26.00;10.20;;;;;;5054093;28;20409;-77
2022/07/19 07:11:45;;;;;;;8.10;3.40;;;26.20;9.30;;;;;;5053639;28;20384;-76
2022/07/19 07:14:11;;;;;;;10.98;4.07;;;26.30;9.60;;;;;;5037160;28;20391;-76
2022/07/19 07:16:36;;;;;;;4.20;3.37;;;26.40;10.20;;;;;;5039925;28;20390;-76
2022/07/19 07:19:02;;;;;;;9.90;4.03;;;26.40;8.90;;;;;;5038162;28;20397;-78
2022/07/19 07:21:29;;;;;;;10.27;3.60;;;26.50;9.10;;;;;;5032878;28;20399;-78
2022/07/19 07:23:55;;;;;;;7.57;3.57;;;26.60;8.70;;;;;;5034131;28;20401;-76
2022/07/19 07:26:21;;;;;;;7.88;3.50;;;26.80;8.40;;;;;;5041277;28;20529;-82
2022/07/19 07:28:46;;;;;;;11.50;4.10;;;26.90;8.20;;;;;;5037633;28;20414;-79
2022/07/19 07:31:12;;;;;;;13.50;4.00;;;27.00;8.50;;;;;;5043026;28;20404;-76
2022/07/19 07:33:37;;;;;;;20.50;4.77;;;27.00;7.80;;;;;;5053399;28;20424;-75
2022/07/19 07:36:03;;;;;;;8.13;3.72;;;27.10;7.90;;;;;;5047719;28;20741;-76
2022/07/19 07:38:29;;;;;;;14.88;5.15;;;27.20;7.60;;;;;;5040797;28;20399;-76
2022/07/19 07:40:56;;;;;;;8.57;3.60;;;27.40;7.60;;;;;;5042886;28;20409;-78
2022/07/19 07:43:21;;;;;;;9.88;4.20;;;27.50;7.20;;;;;;5049923;28;20437;-78
2022/07/19 07:45:47;;;;;;;9.20;3.83;;;27.50;7.30;;;;;;5060076;28;20390;-79
2022/07/19 07:48:12;;;;;;;8.67;4.20;;;27.60;7.20;;;;;;5068809;28;20794;-78
2022/07/19 07:50:38;;;;;;;5.90;3.60;;;27.70;7.20;;;;;;5066818;28;20901;-79
2022/07/19 07:53:03;;;;;;;12.73;3.70;;;27.80;6.60;;;;;;5062832;28;20400;-79
2022/07/19 07:55:29;;;;;;;6.70;3.80;;;27.90;6.70;;;;;;5057939;28;20381;-80
2022/07/19 07:57:55;;;;;;;5.47;3.87;;;28.00;7.20;;;;;;5058875;28;20389;-79
2022/07/19 08:00:21;;;;;;;6.20;4.03;;;28.10;6.70;;;;;;5057109;28;20390;-79
2022/07/19 08:02:49;;;;;;;8.23;4.40;;;28.30;7.00;;;;;;5058285;28;20476;-78
2022/07/19 08:05:15;;;;;;;8.20;3.80;;;28.40;5.90;;;;;;5058686;28;20424;-79
2022/07/19 08:07:40;;;;;;;9.80;3.80;;;28.60;5.60;;;;;;5062035;28;20390;-77
2022/07/19 08:10:08;;;;;;;8.50;3.50;;;28.70;5.20;;;;;;5067208;28;20412;-77
2022/07/19 08:12:34;;;;;;;8.15;3.95;;;28.80;4.20;;;;;;5071789;28;21101;-77
2022/07/19 08:15:00;;;;;;;4.65;3.35;;;28.80;4.20;;;;;;5071419;28;20377;-77
2022/07/19 08:17:25;;;;;;;12.20;3.90;;;28.80;3.30;;;;;;5072524;28;20389;-78
2022/07/19 08:19:51;;;;;;;7.35;4.22;;;28.90;3.70;;;;;;5073827;28;20411;-77
2022/07/19 08:22:21;;;;;;;8.50;3.95;;;29.10;3.80;;;;;;5069749;28;20468;-78
2022/07/19 08:24:46;;;;;;;8.73;4.85;;;29.30;3.50;;;;;;5068759;28;20475;-77
2022/07/19 08:27:12;;;;;;;10.38;3.80;;;29.50;3.70;;;;;;5066515;28;20412;-77
2022/07/19 08:29:38;;;;;;;5.43;3.67;;;29.60;3.60;;;;;;5070896;28;20517;-77
2022/07/19 08:32:04;;;;;;;7.80;3.42;;;29.70;2.50;;;;;;5066793;28;20413;-79
2022/07/19 08:34:32;;;;;;;9.80;3.50;;;29.80;2.20;;;;;;5062867;28;20389;-80
2022/07/19 08:36:59;;;;;;;7.93;3.53;;;29.80;2.20;;;;;;5059368;28;20401;-79
2022/07/19 08:39:25;;;;;;;7.15;3.60;;;30.00;2.00;;;;;;5060315;28;20390;-78
2022/07/19 08:41:51;;;;;;;5.10;3.70;;;30.10;1.50;;;;;;5060355;28;20390;-79
2022/07/19 08:44:17;;;;;;;10.10;3.45;;;30.10;1.80;;;;;;5059038;28;20401;-80
2022/07/19 08:46:43;;;;;;;9.23;4.00;;;30.10;1.90;;;;;;5059619;28;20405;-79
2022/07/19 08:49:10;;;;;;;8.00;3.47;;;30.20;1.70;;;;;;5060716;28;20405;-79
2022/07/19 08:51:36;;;;;;;7.63;4.60;;;30.40;1.90;;;;;;5060570;28;20386;-78
2022/07/19 08:54:03;;;;;;;12.50;4.50;;;30.50;1.70;;;;;;5071959;28;20378;-77
2022/07/19 08:59:13;;;;;;;8.07;3.95;;;30.70;1.00;;;;;;5064593;28;20393;-77
2022/07/19 09:01:39;;;;;;;7.18;3.78;;;30.80;1.00;;;;;;5058798;28;20394;-78
2022/07/19 09:04:21;;;;;;;9.40;4.50;;;30.80;1.00;;;;;;5058207;28;20470;-77
2022/07/19 09:06:52;;;;;;;8.45;3.97;;;30.90;1.00;;;;;;5059618;28;20404;-79
2022/07/19 09:09:27;;;;;;;8.70;3.60;;;30.90;1.30;;;;;;5064862;28;20405;-79
2022/07/19 09:11:55;;;;;;;9.63;3.95;;;31.00;1.00;;;;;;5066439;28;20394;-79
2022/07/19 09:14:40;;;;;;;11.55;4.18;;;31.10;1.00;;;;;;5064867;28;20564;-79
2022/07/19 09:17:12;;;;;;;7.57;3.87;;;31.30;1.00;;;;;;5057756;28;20382;-79
2022/07/19 09:19:40;;;;;;;9.30;4.03;;;31.50;1.00;;;;;;5057324;28;20385;-79
2022/07/19 09:22:08;;;;;;;11.35;3.70;;;31.50;1.00;;;;;;5057656;28;20405;-78
2022/07/19 09:24:36;;;;;;;6.95;3.90;;;31.50;1.00;;;;;;5057118;28;20427;-79
2022/07/19 09:27:07;;;;;;;9.07;3.58;;;31.60;1.00;;;;;;5061985;28;20879;-78
2022/07/19 09:29:36;;;;;;;10.88;3.28;;;31.70;1.00;;;;;;5068632;28;20501;-78
2022/07/19 09:32:01;;;;;;;6.03;3.83;;;31.80;1.00;;;;;;5071755;28;20389;-77
2022/07/19 09:34:28;;;;;;;11.60;4.75;;;31.90;1.00;;;;;;5072449;28;20394;-77
2022/07/19 09:37:17;;;;;;;8.00;4.45;;;32.00;1.00;;;;;;5072269;28;20405;-78
2022/07/19 09:39:45;;;;;;;6.45;3.47;;;32.20;1.00;;;;;;5073858;28;20417;-78
2022/07/19 09:42:12;;;;;;;6.57;3.60;;;32.20;1.00;;;;;;5065914;28;20389;-78
2022/07/19 09:44:38;;;;;;;9.67;3.70;;;32.30;1.00;;;;;;5058633;28;20392;-77
2022/07/19 09:47:03;;;;;;;4.53;3.90;;;32.40;1.00;;;;;;5056244;28;20393;-78
2022/07/19 09:49:29;;;;;;;4.67;3.60;;;32.40;1.00;;;;;;5056771;28;20405;-79
2022/07/19 09:51:55;;;;;;;7.97;3.55;;;32.50;1.00;;;;;;5055472;28;20388;-77
2022/07/19 09:54:23;;;;;;;7.47;3.80;;;32.60;1.00;;;;;;5057116;28;20386;-77
2022/07/19 09:56:50;;;;;;;11.35;3.97;;;32.80;1.00;;;;;;5067414;28;20388;-77
2022/07/19 09:59:17;;;;;;;6.43;3.78;;;32.90;1.00;;;;;;5064028;28;20390;-77
2022/07/19 10:01:43;;;;;;;7.30;3.28;;;32.90;1.00;;;;;;5055277;28;20389;-77
2022/07/19 10:04:11;;;;;;;8.10;3.88;;;32.80;1.00;;;;;;5053244;28;20476;-78
2022/07/19 10:06:38;;;;;;;7.30;3.85;;;32.90;1.00;;;;;;5054248;28;20392;-78
2022/07/19 10:09:06;;;;;;;5.07;3.35;;;33.10;1.00;;;;;;5054064;28;20492;-78
2022/07/19 10:11:32;;;;;;;4.50;3.40;;;33.10;1.00;;;;;;5053197;28;20481;-78
2022/07/19 10:13:58;;;;;;;6.95;3.42;;;33.20;1.00;;;;;;5054400;28;20438;-78
2022/07/19 10:16:53;;;;;;;6.68;3.35;;;33.20;1.00;;;;;;5054359;28;20468;-79
2022/07/19 10:19:28;;;;;;;8.90;3.88;;;33.40;1.00;;;;;;5055412;28;20764;-77
2022/07/19 10:21:54;;;;;;;12.02;3.30;;;33.40;1.00;;;;;;5059693;28;20831;-79
2022/07/19 10:24:45;;;;;;;3.85;3.50;;;33.60;1.00;;;;;;5056190;28;20385;-79
2022/07/19 10:27:11;;;;;;;7.80;4.00;;;33.60;1.00;;;;;;5056973;28;20381;-79
2022/07/19 10:29:37;;;;;;;6.97;3.50;;;33.80;1.00;;;;;;5054473;28;20405;-78
2022/07/19 10:32:08;;;;;;;3.95;3.00;;;33.90;1.00;;;;;;5057016;28;20471;-79
2022/07/19 10:34:34;;;;;;;5.93;3.43;;;33.90;1.00;;;;;;5058904;28;20395;-78
2022/07/19 10:36:59;;;;;;;4.03;3.13;;;33.90;1.00;;;;;;5058862;28;20385;-77
2022/07/19 10:39:36;;;;;;;6.00;3.67;;;33.80;1.00;;;;;;5060541;28;20443;-78
2022/07/19 10:42:18;;;;;;;10.90;3.90;;;33.90;1.00;;;;;;5059667;28;20385;-78
2022/07/19 10:45:02;;;;;;;8.73;3.00;;;34.00;1.00;;;;;;5075458;28;20389;-77
2022/07/19 10:47:57;;;;;;;6.13;3.03;;;34.20;1.00;;;;;;5064357;28;20412;-78
2022/07/19 10:50:24;;;;;;;4.10;2.90;;;34.20;1.00;;;;;;5070288;28;20405;-77
2022/07/19 10:52:50;;;;;;;6.25;2.90;;;34.20;1.00;;;;;;5075909;28;20385;-76
2022/07/19 10:55:16;;;;;;;5.73;2.90;;;34.20;1.00;;;;;;5076516;28;20387;-77
2022/07/19 10:57:42;;;;;;;5.95;2.72;;;34.30;1.00;;;;;;5076348;28;20437;-77
2022/07/19 11:00:21;;;;;;;9.20;2.80;;;34.30;1.00;;;;;;5073245;28;20397;-79
2022/07/19 11:02:48;;;;;;;4.60;3.20;;;34.30;1.00;;;;;;5059992;28;20385;-78
2022/07/19 11:05:24;;;;;;;4.63;2.83;;;34.40;1.00;;;;;;5060594;28;20726;-78
2022/07/19 11:07:52;;;;;;;5.68;2.90;;;34.40;1.00;;;;;;5060637;28;20378;-78
2022/07/19 11:10:29;;;;;;;6.63;3.40;;;34.50;1.00;;;;;;5059674;28;20401;-78
2022/07/19 11:12:56;;;;;;;3.88;2.80;;;34.60;1.00;;;;;;5059618;28;20443;-79
2022/07/19 11:15:22;;;;;;;5.93;2.83;;;34.70;1.00;;;;;;5060788;28;20412;-79
2022/07/19 11:18:04;;;;;;;5.57;3.03;;;34.80;1.00;;;;;;5058851;28;20412;-78
2022/07/19 11:20:36;;;;;;;4.63;2.80;;;34.80;1.00;;;;;;5058872;28;20377;-79
2022/07/19 11:23:04;;;;;;;6.35;3.28;;;34.80;1.00;;;;;;5059309;28;20912;-79
2022/07/19 11:25:41;;;;;;;5.03;3.10;;;34.80;1.00;;;;;;5058314;28;20413;-78
2022/07/19 11:28:18;;;;;;;4.65;3.00;;;34.90;1.00;;;;;;5057017;28;20389;-78
2022/07/19 11:30:44;;;;;;;6.55;3.28;;;35.00;1.00;;;;;;5062106;28;20415;-78
2022/07/19 11:33:09;;;;;;;4.17;3.00;;;35.10;1.00;;;;;;5057671;28;20389;-78
2022/07/19 11:35:35;;;;;;;5.95;3.25;;;35.10;1.00;;;;;;5058287;28;20393;-79
2022/07/19 11:38:01;;;;;;;4.93;2.80;;;35.20;1.00;;;;;;5058973;28;20388;-79
2022/07/19 11:40:34;;;;;;;5.97;3.00;;;35.20;1.00;;;;;;5063526;28;20482;-76
2022/07/19 11:43:04;;;;;;;5.72;3.00;;;35.30;1.00;;;;;;5073096;28;20396;-78
2022/07/19 11:45:30;;;;;;;6.20;2.70;;;35.50;1.00;;;;;;5073435;28;20457;-80
2022/07/19 11:47:57;;;;;;;3.10;2.80;;;35.50;1.00;;;;;;5061904;28;20762;-78
2022/07/19 11:50:25;;;;;;;6.72;2.70;;;35.50;1.00;;;;;;5059943;28;20424;-78
2022/07/19 11:52:54;;;;;;;3.05;2.70;;;35.50;1.00;;;;;;5058625;28;20378;-78
2022/07/19 11:55:24;;;;;;;7.70;2.70;;;35.60;1.00;;;;;;5058759;28;20386;-79
2022/07/19 11:57:51;;;;;;;4.00;2.88;;;35.50;1.00;;;;;;5058804;28;20416;-78
2022/07/19 12:00:18;;;;;;;3.97;2.72;;;35.60;1.00;;;;;;5057042;28;20392;-77
2022/07/19 12:03:04;;;;;;;5.97;3.00;;;35.70;1.00;;;;;;5058076;28;20491;-78
2022/07/19 12:05:32;;;;;;;7.00;3.30;;;35.80;1.00;;;;;;5060368;28;20388;-78
2022/07/19 12:08:01;;;;;;;3.78;3.00;;;35.80;1.00;;;;;;5067312;28;20404;-79
2022/07/19 12:10:40;;;;;;;5.03;3.30;;;35.90;1.00;;;;;;5071947;28;20405;-78
2022/07/19 12:13:12;;;;;;;5.50;3.10;;;35.90;1.00;;;;;;5059627;28;20792;-79
2022/07/19 12:15:47;;;;;;;5.23;3.20;;;36.10;1.00;;;;;;5057785;28;20482;-78
2022/07/19 12:18:17;;;;;;;9.45;3.25;;;36.10;1.00;;;;;;5057066;28;20390;-77
2022/07/19 12:20:44;;;;;;;4.00;3.30;;;36.20;1.00;;;;;;5058858;28;20392;-78
2022/07/19 12:23:15;;;;;;;6.53;3.50;;;36.10;1.00;;;;;;5058469;28;20377;-78
2022/07/19 12:25:41;;;;;;;6.70;3.20;;;36.30;1.00;;;;;;5057340;28;20378;-78
2022/07/19 12:28:07;;;;;;;4.07;3.30;;;36.30;1.00;;;;;;5057694;28;20381;-78
2022/07/19 12:30:33;;;;;;;6.00;3.30;;;36.30;1.00;;;;;;5058268;28;20421;-78
2022/07/19 12:33:13;;;;;;;10.05;3.75;;;36.40;1.00;;;;;;5059319;28;20392;-79
2022/07/19 12:35:47;;;;;;;5.60;3.70;;;36.40;1.00;;;;;;5057020;28;20386;-79
2022/07/19 12:38:13;;;;;;;7.17;3.30;;;36.30;1.00;;;;;;5059459;28;20556;-79
2022/07/19 12:40:41;;;;;;;9.50;3.00;;;36.40;1.00;;;;;;5060416;28;20423;-78
2022/07/19 12:43:09;;;;;;;5.07;3.10;;;36.40;1.00;;;;;;5060045;28;20471;-78
2022/07/19 12:45:43;;;;;;;5.07;3.03;;;36.50;1.00;;;;;;5059443;28;20772;-79
2022/07/19 12:48:11;;;;;;;5.63;3.40;;;36.60;1.00;;;;;;5059800;28;20389;-79
2022/07/19 12:50:38;;;;;;;4.03;3.40;;;36.70;1.00;;;;;;5059374;28;20476;-78
2022/07/19 12:53:07;;;;;;;5.65;3.00;;;36.80;1.00;;;;;;5067417;28;20385;-78